createdAt,value
2019-02-28T00:03:09.487Z,3.83
2019-02-28T00:07:17.637Z,2.90
2019-02-28T00:11:20.856Z,2.87
2019-02-28T00:15:25.717Z,3.15
2019-02-28T00:19:30.532Z,2.92
2019-02-28T00:23:35.412Z,2.35
2019-02-28T00:27:40.214Z,2.50
2019-02-28T00:31:49.519Z,2.17
2019-02-28T00:35:51.894Z,2.33
2019-02-28T00:39:56.796Z,2.30
2019-02-28T00:44:01.672Z,2.50
2019-02-28T00:48:06.828Z,2.47
2019-02-28T00:52:11.640Z,2.02
2019-02-28T00:56:17.519Z,1.90
2019-02-28T01:00:23.297Z,1.95
2019-02-28T01:04:29.945Z,1.95
2019-02-28T01:08:34.530Z,2.00
2019-02-28T01:12:41.789Z,1.80
2019-02-28T01:16:46.588Z,2.12
2019-02-28T01:20:51.692Z,1.70
2019-02-28T01:24:56.496Z,2.33
2019-02-28T01:29:02.079Z,1.95
2019-02-28T01:33:07.873Z,1.80
2019-02-28T01:37:13.344Z,2.27
2019-02-28T01:41:18.442Z,1.80
2019-02-28T01:45:23.393Z,2.15
2019-02-28T01:49:28.138Z,1.32
2019-02-28T01:53:34.009Z,1.80
2019-02-28T01:57:42.335Z,1.80
2019-02-28T02:01:45.273Z,1.80
2019-02-28T02:05:51.712Z,1.50
2019-02-28T02:09:56.795Z,1.80
2019-02-28T02:14:01.527Z,1.85
2019-02-28T02:18:09.290Z,1.60
2019-02-28T02:22:12.951Z,1.70
2019-02-28T02:26:17.812Z,1.70
2019-02-28T02:30:23.421Z,1.70
2019-02-28T02:34:29.497Z,2.05
2019-02-28T02:38:39.832Z,1.82
2019-02-28T02:42:47.637Z,1.98
2019-02-28T02:46:48.160Z,1.55
2019-02-28T02:50:53.194Z,1.70
2019-02-28T02:54:59.326Z,1.80
2019-02-28T02:59:04.268Z,1.92
2019-02-28T03:03:09.394Z,1.70
2019-02-28T03:07:14.280Z,1.70
2019-02-28T03:11:24.755Z,1.50
2019-02-28T03:15:27.431Z,1.30
2019-02-28T03:19:33.732Z,1.75
2019-02-28T03:23:40.499Z,1.30
2019-02-28T03:27:45.428Z,1.50
2019-02-28T03:31:56.801Z,1.32
2019-02-28T03:35:56.836Z,1.80
2019-02-28T03:40:04.411Z,1.60
2019-02-28T03:44:08.354Z,2.00
2019-02-28T03:48:13.114Z,1.50
2019-02-28T03:52:18.150Z,1.42
2019-02-28T03:56:23.228Z,1.30
2019-02-28T04:00:32.732Z,1.50
2019-02-28T04:04:34.792Z,1.55
2019-02-28T04:08:39.588Z,1.30
2019-02-28T04:12:45.645Z,1.52
2019-02-28T04:16:54.159Z,1.35
2019-02-28T04:20:57.497Z,1.30
2019-02-28T04:25:02.294Z,1.87
2019-02-28T04:29:07.096Z,1.80
2019-02-28T04:33:12.157Z,1.55
2019-02-28T04:37:16.878Z,1.50
2019-02-28T04:41:21.771Z,1.80
2019-02-28T04:45:27.064Z,2.10
2019-02-28T04:49:32.049Z,2.45
2019-02-28T04:53:36.924Z,3.50
2019-02-28T04:57:41.721Z,3.05
2019-02-28T05:01:46.868Z,2.17
2019-02-28T05:05:51.600Z,2.12
2019-02-28T05:09:56.505Z,2.30
2019-02-28T05:14:01.316Z,1.98
2019-02-28T05:18:06.158Z,2.08
2019-02-28T05:22:11.155Z,1.92
2019-02-28T05:26:16.020Z,2.00
2019-02-28T05:30:21.142Z,1.67
2019-02-28T05:34:25.876Z,1.70
2019-02-28T05:38:34.226Z,1.77
2019-02-28T05:42:39.284Z,1.65
2019-02-28T05:46:44.245Z,1.50
2019-02-28T05:50:52.849Z,1.67
2019-02-28T05:54:55.449Z,1.70
2019-02-28T05:59:00.314Z,1.60
2019-02-28T06:03:05.384Z,1.70
2019-02-28T06:07:10.428Z,2.27
2019-02-28T06:11:15.403Z,3.10
2019-02-28T06:15:20.680Z,3.33
2019-02-28T06:19:25.800Z,3.17
2019-02-28T06:23:30.592Z,2.10
2019-02-28T06:27:41.714Z,2.50
2019-02-28T06:31:45.492Z,2.37
2019-02-28T06:35:49.504Z,2.72
2019-02-28T06:39:58.635Z,2.77
2019-02-28T06:44:02.269Z,2.58
2019-02-28T06:48:07.158Z,2.80
2019-02-28T06:52:12.040Z,2.72
2019-02-28T06:56:21.854Z,3.05
2019-02-28T07:00:28.859Z,3.90
2019-02-28T07:04:33.849Z,3.20
2019-02-28T07:08:38.639Z,3.60
2019-02-28T07:12:43.600Z,3.95
2019-02-28T07:16:48.479Z,4.12
2019-02-28T07:20:53.580Z,4.75
2019-02-28T07:24:58.408Z,4.90
2019-02-28T07:29:03.276Z,5.30
2019-02-28T07:33:10.465Z,5.47
2019-02-28T07:37:18.582Z,5.72
2019-02-28T07:41:26.345Z,6.05
2019-02-28T07:45:29.637Z,5.75
2019-02-28T07:49:36.731Z,6.25
2019-02-28T07:53:41.968Z,6.42
2019-02-28T07:57:51.126Z,7.70
2019-02-28T08:01:53.886Z,6.70
2019-02-28T08:06:04.496Z,7.85
2019-02-28T08:10:07.500Z,8.80
2019-02-28T08:14:12.961Z,7.72
2019-02-28T08:18:18.932Z,8.28
2019-02-28T08:22:24.771Z,9.10
2019-02-28T08:26:29.967Z,9.05
2019-02-28T08:30:34.893Z,9.48
2019-02-28T08:34:39.920Z,9.55
2019-02-28T08:38:44.792Z,9.50
2019-02-28T08:42:50.104Z,8.95
2019-02-28T08:46:55.255Z,8.90
2019-02-28T08:51:00.243Z,9.40
2019-02-28T08:55:07.741Z,9.75
2019-02-28T08:59:18.494Z,8.90
2019-02-28T09:03:19.616Z,9.65
2019-02-28T09:07:24.523Z,9.35
2019-02-28T09:11:30.605Z,8.80
2019-02-28T09:15:37.153Z,9.50
2019-02-28T09:19:41.957Z,9.70
2019-02-28T09:23:46.857Z,9.80
2019-02-28T09:27:51.768Z,9.53
2019-02-28T09:31:56.757Z,9.35
2019-02-28T09:36:01.584Z,10.45
2019-02-28T09:40:07.803Z,9.55
2019-02-28T09:44:13.539Z,9.70
2019-02-28T09:48:19.719Z,9.85
2019-02-28T09:52:24.624Z,8.88
2019-02-28T09:56:29.437Z,9.13
2019-02-28T10:00:34.537Z,8.43
2019-02-28T10:04:39.714Z,8.25
2019-02-28T10:08:44.462Z,8.18
2019-02-28T10:12:49.366Z,8.15
2019-02-28T10:16:54.193Z,8.08
2019-02-28T10:21:01.792Z,8.18
2019-02-28T10:25:06.656Z,8.98
2019-02-28T10:29:12.022Z,7.87
2019-02-28T10:33:17.296Z,7.42
2019-02-28T10:37:23.611Z,7.97
2019-02-28T10:41:31.248Z,8.90
2019-02-28T10:45:41.061Z,9.83
2019-02-28T10:49:42.460Z,8.70
2019-02-28T10:53:47.288Z,10.15
2019-02-28T10:57:52.267Z,9.93
2019-02-28T11:01:57.175Z,10.08
2019-02-28T11:06:02.081Z,11.68
2019-02-28T11:10:07.213Z,10.90
2019-02-28T11:14:12.378Z,9.83
2019-02-28T11:18:17.883Z,9.28
2019-02-28T11:22:23.056Z,9.13
2019-02-28T11:26:28.301Z,9.20
2019-02-28T11:30:33.801Z,8.70
2019-02-28T11:34:38.694Z,8.80
2019-02-28T11:38:43.902Z,9.05
2019-02-28T11:42:48.998Z,8.75
2019-02-28T11:46:55.156Z,7.85
2019-02-28T11:51:00.070Z,8.85
2019-02-28T11:55:05.534Z,8.55
2019-02-28T11:59:11.014Z,7.90
2019-02-28T12:03:16.352Z,8.58
2019-02-28T12:07:21.241Z,8.10
2019-02-28T12:11:26.142Z,8.38
2019-02-28T12:15:30.948Z,8.33
2019-02-28T12:19:35.781Z,9.13
2019-02-28T12:23:40.623Z,8.10
2019-02-28T12:27:46.581Z,8.20
2019-02-28T12:31:51.428Z,8.78
2019-02-28T12:35:56.140Z,9.20
2019-02-28T12:40:01.044Z,9.38
2019-02-28T12:44:06.924Z,8.63
2019-02-28T12:48:13.771Z,9.13
2019-02-28T12:52:18.442Z,8.05
2019-02-28T12:56:23.309Z,8.55
2019-02-28T13:00:33.834Z,8.98
2019-02-28T13:04:38.659Z,9.13
2019-02-28T13:08:43.495Z,8.70
2019-02-28T13:12:49.778Z,9.58
2019-02-28T13:16:57.598Z,8.68
2019-02-28T13:21:01.470Z,9.43
2019-02-28T13:25:11.814Z,8.93
2019-02-28T13:29:16.848Z,8.70
2019-02-28T13:33:21.728Z,9.48
2019-02-28T13:37:26.687Z,9.73
2019-02-28T13:41:31.428Z,9.33
2019-02-28T13:45:36.187Z,10.15
2019-02-28T13:49:42.312Z,11.03
2019-02-28T13:53:47.323Z,10.20
2019-02-28T13:57:52.173Z,9.45
2019-02-28T14:01:57.082Z,9.98
2019-02-28T14:06:01.843Z,10.78
2019-02-28T14:10:11.397Z,10.35
2019-02-28T14:14:16.983Z,10.25
2019-02-28T14:18:21.745Z,10.43
2019-02-28T14:22:26.736Z,10.03
2019-02-28T14:26:32.472Z,10.80
2019-02-28T14:30:37.464Z,9.45
2019-02-28T14:34:42.212Z,10.18
2019-02-28T14:38:47.113Z,10.38
2019-02-28T14:42:52.124Z,10.03
2019-02-28T14:46:57.094Z,10.53
2019-02-28T14:51:03.092Z,10.58
2019-02-28T14:55:10.645Z,10.68
2019-02-28T14:59:15.475Z,10.15
2019-02-28T15:03:20.328Z,9.48
2019-02-28T15:07:25.071Z,9.60
2019-02-28T15:11:30.373Z,10.00
2019-02-28T15:15:36.441Z,10.08
2019-02-28T15:19:45.689Z,9.80
2019-02-28T15:23:50.585Z,10.28
2019-02-28T15:27:57.316Z,10.53
2019-02-28T15:32:01.922Z,9.50
2019-02-28T15:36:06.827Z,9.95
2019-02-28T15:40:16.313Z,9.43
2019-02-28T15:44:22.124Z,10.30
2019-02-28T15:48:27.940Z,9.93
2019-02-28T15:52:32.780Z,10.03
2019-02-28T15:56:38.327Z,9.88
2019-02-28T16:00:43.481Z,9.05
2019-02-28T16:04:48.624Z,9.50
2019-02-28T16:08:53.507Z,8.33
2019-02-28T16:12:58.588Z,8.48
2019-02-28T16:17:03.616Z,8.85
2019-02-28T16:21:08.680Z,9.05
2019-02-28T16:25:18.973Z,8.48
2019-02-28T16:29:23.893Z,8.75
2019-02-28T16:33:28.711Z,8.60
2019-02-28T16:37:34.995Z,8.65
2019-02-28T16:41:39.913Z,9.50
2019-02-28T16:45:48.050Z,8.70
2019-02-28T16:49:52.888Z,9.10
2019-02-28T16:53:58.083Z,9.85
2019-02-28T16:58:04.498Z,9.80
2019-02-28T17:02:10.214Z,9.65
2019-02-28T17:06:15.640Z,9.75
2019-02-28T17:10:25.255Z,9.60
2019-02-28T17:14:30.163Z,9.85
2019-02-28T17:18:36.188Z,10.03
2019-02-28T17:22:40.943Z,11.48
2019-02-28T17:27:06.337Z,11.00
2019-02-28T17:31:19.725Z,10.13
2019-02-28T17:35:24.551Z,11.05
2019-02-28T17:39:30.620Z,10.90
2019-02-28T17:43:37.514Z,11.08
2019-02-28T17:48:53.886Z,10.45
2019-02-28T17:53:36.548Z,11.10
2019-02-28T17:57:56.012Z,10.45
2019-02-28T18:02:20.020Z,11.12
2019-02-28T18:07:04.944Z,10.98
2019-02-28T18:11:38.551Z,12.03
2019-02-28T18:16:27.897Z,11.18
2019-02-28T18:21:07.448Z,11.95
2019-02-28T18:25:53.406Z,12.40
2019-02-28T18:30:48.892Z,13.60
2019-02-28T18:34:56.263Z,11.97
2019-02-28T18:39:00.240Z,12.18
2019-02-28T18:43:05.753Z,12.33
2019-02-28T18:47:10.690Z,13.35
2019-02-28T18:51:16.720Z,12.47
2019-02-28T18:55:22.003Z,12.33
2019-02-28T18:59:27.218Z,13.00
2019-02-28T19:03:32.128Z,12.20
2019-02-28T19:07:37.024Z,12.37
2019-02-28T19:11:41.896Z,12.50
2019-02-28T19:15:46.822Z,11.43
2019-02-28T19:19:52.029Z,11.53
2019-02-28T19:23:57.128Z,12.28
2019-02-28T19:28:02.992Z,12.18
2019-02-28T19:32:07.832Z,12.68
2019-02-28T19:36:12.656Z,12.78
2019-02-28T19:40:18.734Z,12.33
2019-02-28T19:44:23.536Z,12.70
2019-02-28T19:48:28.322Z,11.95
2019-02-28T19:52:33.095Z,12.18
2019-02-28T19:56:37.849Z,11.45
2019-02-28T20:00:42.829Z,14.13
2019-02-28T20:04:47.737Z,12.03
2019-02-28T20:08:53.616Z,12.10
2019-02-28T20:12:58.525Z,12.03
2019-02-28T20:17:03.428Z,11.63
2019-02-28T20:21:09.152Z,12.18
2019-02-28T20:25:15.223Z,11.65
2019-02-28T20:29:20.751Z,11.93
2019-02-28T20:33:25.584Z,11.55
2019-02-28T20:37:30.674Z,12.28
2019-02-28T20:41:35.461Z,12.18
2019-02-28T20:45:40.343Z,12.45
2019-02-28T20:49:45.539Z,12.37
2019-02-28T20:53:50.824Z,12.40
2019-02-28T20:57:55.664Z,12.23
2019-02-28T21:02:00.535Z,12.53
2019-02-28T21:06:05.411Z,11.73
2019-02-28T21:10:12.002Z,12.55
2019-02-28T21:14:17.025Z,12.28
2019-02-28T21:18:22.075Z,11.93
2019-02-28T21:22:27.332Z,13.53
2019-02-28T21:26:35.929Z,12.98
2019-02-28T21:30:42.096Z,12.88
2019-02-28T21:34:47.260Z,13.03
2019-02-28T21:38:52.080Z,12.78
2019-02-28T21:42:56.997Z,13.62
2019-02-28T21:47:02.122Z,12.90
2019-02-28T21:51:07.321Z,13.60
2019-02-28T21:55:13.033Z,13.40
2019-02-28T21:59:18.068Z,13.53
2019-02-28T22:03:23.052Z,14.20
2019-02-28T22:07:28.217Z,14.68
2019-02-28T22:11:33.240Z,13.88
2019-02-28T22:15:38.392Z,14.28
2019-02-28T22:19:43.347Z,14.10
2019-02-28T22:23:48.131Z,14.85
2019-02-28T22:27:53.024Z,13.80
2019-02-28T22:32:07.120Z,15.53
2019-02-28T22:36:14.050Z,15.40
2019-02-28T22:40:19.216Z,14.28
2019-02-28T22:44:23.966Z,15.30
2019-02-28T22:48:28.881Z,16.65
2019-02-28T22:52:34.046Z,15.53
2019-02-28T22:56:38.870Z,14.95
2019-02-28T23:00:58.546Z,14.83
2019-02-28T23:05:04.995Z,14.03
2019-02-28T23:09:11.096Z,13.48
2019-02-28T23:13:16.287Z,14.13
2019-02-28T23:17:21.096Z,12.53
2019-02-28T23:21:25.980Z,12.53
2019-02-28T23:25:30.801Z,13.58
2019-02-28T23:29:35.624Z,12.73
2019-02-28T23:33:40.485Z,14.25
2019-02-28T23:37:45.375Z,12.90
2019-02-28T23:41:50.450Z,13.55
2019-02-28T23:45:55.337Z,12.40
2019-02-28T23:50:00.558Z,13.18
2019-02-28T23:54:05.488Z,12.47
2019-02-28T23:58:10.279Z,10.72
